sensor_id;sensor_type;location;lat;lon;timestamp;P1;durP1;ratioP1;P2;durP2;ratioP2
59016;SDS011;44800;55.600;38.134;2022-11-20T00:01:22;10.05;;;5.63;;
59016;SDS011;44800;55.600;38.134;2022-11-20T00:03:51;10.95;;;5.57;;
59016;SDS011;44800;55.600;38.134;2022-11-20T00:06:21;12.02;;;6.90;;
59016;SDS011;44800;55.600;38.134;2022-11-20T00:08:50;18.38;;;6.05;;
59016;SDS011;44800;55.600;38.134;2022-11-20T00:11:18;10.88;;;5.63;;
59016;SDS011;44800;55.600;38.134;2022-11-20T00:13:50;12.40;;;6.22;;
59016;SDS011;44800;55.600;38.134;2022-11-20T00:16:20;12.10;;;6.15;;
59016;SDS011;44800;55.600;38.134;2022-11-20T00:18:49;12.98;;;6.20;;
59016;SDS011;44800;55.600;38.134;2022-11-20T00:21:17;8.93;;;4.85;;
59016;SDS011;44800;55.600;38.134;2022-11-20T00:23:47;15.85;;;6.28;;
59016;SDS011;44800;55.600;38.134;2022-11-20T00:26:16;13.10;;;5.53;;
59016;SDS011;44800;55.600;38.134;2022-11-20T00:28:50;8.55;;;4.93;;
59016;SDS011;44800;55.600;38.134;2022-11-20T00:31:20;11.60;;;5.93;;
59016;SDS011;44800;55.600;38.134;2022-11-20T00:33:48;9.82;;;5.35;;
59016;SDS011;44800;55.600;38.134;2022-11-20T00:36:17;9.93;;;5.55;;
59016;SDS011;44800;55.600;38.134;2022-11-20T00:38:46;12.60;;;5.80;;
59016;SDS011;44800;55.600;38.134;2022-11-20T00:41:15;11.40;;;6.03;;
59016;SDS011;44800;55.600;38.134;2022-11-20T00:43:43;10.95;;;6.03;;
59016;SDS011;44800;55.600;38.134;2022-11-20T00:46:13;7.57;;;4.40;;
59016;SDS011;44800;55.600;38.134;2022-11-20T00:48:43;10.77;;;4.75;;
59016;SDS011;44800;55.600;38.134;2022-11-20T00:51:13;9.18;;;4.82;;
59016;SDS011;44800;55.600;38.134;2022-11-20T00:53:41;13.80;;;6.05;;
59016;SDS011;44800;55.600;38.134;2022-11-20T00:56:11;15.02;;;5.50;;
59016;SDS011;44800;55.600;38.134;2022-11-20T00:58:40;9.15;;;4.38;;
59016;SDS011;44800;55.600;38.134;2022-11-20T01:01:10;9.55;;;5.43;;
59016;SDS011;44800;55.600;38.134;2022-11-20T01:03:42;10.90;;;5.18;;
59016;SDS011;44800;55.600;38.134;2022-11-20T01:06:12;8.93;;;3.25;;
59016;SDS011;44800;55.600;38.134;2022-11-20T01:08:42;13.50;;;5.60;;
59016;SDS011;44800;55.600;38.134;2022-11-20T01:11:12;15.55;;;6.50;;
59016;SDS011;44800;55.600;38.134;2022-11-20T01:13:42;12.10;;;6.00;;
59016;SDS011;44800;55.600;38.134;2022-11-20T01:16:13;7.18;;;4.95;;
59016;SDS011;44800;55.600;38.134;2022-11-20T01:18:43;15.27;;;7.63;;
59016;SDS011;44800;55.600;38.134;2022-11-20T01:21:15;15.90;;;6.97;;
59016;SDS011;44800;55.600;38.134;2022-11-20T01:23:44;14.30;;;6.78;;
59016;SDS011;44800;55.600;38.134;2022-11-20T01:26:13;11.13;;;6.18;;
59016;SDS011;44800;55.600;38.134;2022-11-20T01:28:43;13.05;;;7.55;;
59016;SDS011;44800;55.600;38.134;2022-11-20T01:31:14;15.30;;;7.13;;
59016;SDS011;44800;55.600;38.134;2022-11-20T01:33:44;12.27;;;6.63;;
59016;SDS011;44800;55.600;38.134;2022-11-20T01:36:13;16.67;;;7.13;;
59016;SDS011;44800;55.600;38.134;2022-11-20T01:38:42;12.60;;;6.57;;
59016;SDS011;44800;55.600;38.134;2022-11-20T01:41:11;15.70;;;7.40;;
59016;SDS011;44800;55.600;38.134;2022-11-20T01:44:01;18.77;;;7.38;;
59016;SDS011;44800;55.600;38.134;2022-11-20T01:46:31;16.42;;;6.57;;
59016;SDS011;44800;55.600;38.134;2022-11-20T01:49:00;13.90;;;6.20;;
59016;SDS011;44800;55.600;38.134;2022-11-20T01:51:32;16.35;;;6.63;;
59016;SDS011;44800;55.600;38.134;2022-11-20T01:54:04;11.18;;;6.43;;
59016;SDS011;44800;55.600;38.134;2022-11-20T01:56:35;15.13;;;6.25;;
59016;SDS011;44800;55.600;38.134;2022-11-20T01:59:05;14.90;;;6.28;;
59016;SDS011;44800;55.600;38.134;2022-11-20T02:01:36;12.02;;;7.03;;
59016;SDS011;44800;55.600;38.134;2022-11-20T02:04:06;13.45;;;5.30;;
59016;SDS011;44800;55.600;38.134;2022-11-20T02:06:35;12.60;;;6.45;;
59016;SDS011;44800;55.600;38.134;2022-11-20T02:09:07;11.63;;;6.05;;
59016;SDS011;44800;55.600;38.134;2022-11-20T02:11:36;11.55;;;6.50;;
59016;SDS011;44800;55.600;38.134;2022-11-20T02:14:04;12.23;;;6.63;;
59016;SDS011;44800;55.600;38.134;2022-11-20T02:16:33;12.55;;;6.30;;
59016;SDS011;44800;55.600;38.134;2022-11-20T02:19:06;16.13;;;6.72;;
59016;SDS011;44800;55.600;38.134;2022-11-20T02:21:40;9.20;;;4.82;;
59016;SDS011;44800;55.600;38.134;2022-11-20T02:26:42;17.38;;;5.78;;
59016;SDS011;44800;55.600;38.134;2022-11-20T02:29:14;13.82;;;5.97;;
59016;SDS011;44800;55.600;38.134;2022-11-20T02:31:44;10.43;;;5.43;;
59016;SDS011;44800;55.600;38.134;2022-11-20T02:34:13;14.07;;;5.50;;
59016;SDS011;44800;55.600;38.134;2022-11-20T02:36:41;11.93;;;5.22;;
59016;SDS011;44800;55.600;38.134;2022-11-20T02:39:10;14.25;;;6.07;;
59016;SDS011;44800;55.600;38.134;2022-11-20T02:41:43;8.55;;;4.88;;
59016;SDS011;44800;55.600;38.134;2022-11-20T02:44:11;11.27;;;5.13;;
59016;SDS011;44800;55.600;38.134;2022-11-20T02:46:39;14.75;;;5.45;;
59016;SDS011;44800;55.600;38.134;2022-11-20T02:49:08;13.45;;;6.80;;
59016;SDS011;44800;55.600;38.134;2022-11-20T02:51:36;16.17;;;6.00;;
59016;SDS011;44800;55.600;38.134;2022-11-20T02:54:04;18.80;;;7.10;;
59016;SDS011;44800;55.600;38.134;2022-11-20T02:56:34;16.88;;;5.53;;
59016;SDS011;44800;55.600;38.134;2022-11-20T02:59:05;9.53;;;6.07;;
59016;SDS011;44800;55.600;38.134;2022-11-20T03:01:34;19.95;;;7.65;;
59016;SDS011;44800;55.600;38.134;2022-11-20T03:04:02;14.40;;;6.47;;
59016;SDS011;44800;55.600;38.134;2022-11-20T03:06:31;14.93;;;6.45;;
59016;SDS011;44800;55.600;38.134;2022-11-20T03:09:00;13.68;;;6.72;;
59016;SDS011;44800;55.600;38.134;2022-11-20T03:11:28;12.73;;;6.82;;
59016;SDS011;44800;55.600;38.134;2022-11-20T03:13:58;14.43;;;6.57;;
59016;SDS011;44800;55.600;38.134;2022-11-20T03:16:30;18.38;;;7.90;;
59016;SDS011;44800;55.600;38.134;2022-11-20T03:18:58;12.65;;;5.20;;
59016;SDS011;44800;55.600;38.134;2022-11-20T03:21:27;11.75;;;4.22;;
59016;SDS011;44800;55.600;38.134;2022-11-20T03:23:57;14.50;;;6.00;;
59016;SDS011;44800;55.600;38.134;2022-11-20T03:26:25;12.68;;;5.43;;
59016;SDS011;44800;55.600;38.134;2022-11-20T03:28:55;15.75;;;6.75;;
59016;SDS011;44800;55.600;38.134;2022-11-20T03:31:26;15.27;;;6.53;;
59016;SDS011;44800;55.600;38.134;2022-11-20T03:33:55;14.05;;;6.18;;
59016;SDS011;44800;55.600;38.134;2022-11-20T03:36:24;18.52;;;6.38;;
59016;SDS011;44800;55.600;38.134;2022-11-20T03:38:53;17.10;;;6.90;;
59016;SDS011;44800;55.600;38.134;2022-11-20T03:41:23;11.30;;;5.93;;
59016;SDS011;44800;55.600;38.134;2022-11-20T03:43:53;14.73;;;7.05;;
59016;SDS011;44800;55.600;38.134;2022-11-20T03:46:22;13.30;;;5.90;;
59016;SDS011;44800;55.600;38.134;2022-11-20T03:48:52;13.68;;;5.85;;
59016;SDS011;44800;55.600;38.134;2022-11-20T03:51:21;12.77;;;5.63;;
59016;SDS011;44800;55.600;38.134;2022-11-20T03:53:51;16.55;;;6.38;;
59016;SDS011;44800;55.600;38.134;2022-11-20T03:56:22;16.48;;;6.15;;
59016;SDS011;44800;55.600;38.134;2022-11-20T03:58:51;11.95;;;4.53;;
59016;SDS011;44800;55.600;38.134;2022-11-20T04:01:19;15.95;;;6.13;;
59016;SDS011;44800;55.600;38.134;2022-11-20T04:03:49;15.00;;;6.70;;
59016;SDS011;44800;55.600;38.134;2022-11-20T04:06:21;14.50;;;6.10;;
59016;SDS011;44800;55.600;38.134;2022-11-20T04:08:50;13.50;;;5.45;;
59016;SDS011;44800;55.600;38.134;2022-11-20T04:11:20;15.75;;;6.68;;
59016;SDS011;44800;55.600;38.134;2022-11-20T04:13:50;16.60;;;5.93;;
59016;SDS011;44800;55.600;38.134;2022-11-20T04:16:19;16.77;;;6.22;;
59016;SDS011;44800;55.600;38.134;2022-11-20T04:18:51;18.45;;;6.72;;
59016;SDS011;44800;55.600;38.134;2022-11-20T04:21:22;18.00;;;6.15;;
59016;SDS011;44800;55.600;38.134;2022-11-20T04:23:51;13.02;;;6.25;;
59016;SDS011;44800;55.600;38.134;2022-11-20T04:26:20;16.10;;;5.88;;
59016;SDS011;44800;55.600;38.134;2022-11-20T04:28:49;14.95;;;6.65;;
59016;SDS011;44800;55.600;38.134;2022-11-20T04:31:18;14.55;;;7.25;;
59016;SDS011;44800;55.600;38.134;2022-11-20T04:33:48;18.05;;;6.65;;
59016;SDS011;44800;55.600;38.134;2022-11-20T04:36:18;15.15;;;6.57;;
59016;SDS011;44800;55.600;38.134;2022-11-20T04:38:50;16.08;;;5.90;;
59016;SDS011;44800;55.600;38.134;2022-11-20T04:41:23;15.18;;;6.28;;
59016;SDS011;44800;55.600;38.134;2022-11-20T04:43:53;18.90;;;6.55;;
59016;SDS011;44800;55.600;38.134;2022-11-20T04:46:26;16.30;;;5.70;;
59016;SDS011;44800;55.600;38.134;2022-11-20T04:48:55;14.77;;;5.82;;
59016;SDS011;44800;55.600;38.134;2022-11-20T04:51:25;16.35;;;6.80;;
59016;SDS011;44800;55.600;38.134;2022-11-20T04:53:54;19.23;;;6.57;;
59016;SDS011;44800;55.600;38.134;2022-11-20T04:56:22;21.98;;;6.38;;
59016;SDS011;44800;55.600;38.134;2022-11-20T04:58:50;16.63;;;6.85;;
59016;SDS011;44800;55.600;38.134;2022-11-20T05:01:19;14.40;;;6.70;;
59016;SDS011;44800;55.600;38.134;2022-11-20T05:03:49;20.55;;;7.03;;
59016;SDS011;44800;55.600;38.134;2022-11-20T05:06:18;19.83;;;5.38;;
59016;SDS011;44800;55.600;38.134;2022-11-20T05:08:48;17.13;;;6.40;;
59016;SDS011;44800;55.600;38.134;2022-11-20T05:11:18;15.88;;;7.35;;
59016;SDS011;44800;55.600;38.134;2022-11-20T05:13:48;19.00;;;6.95;;
59016;SDS011;44800;55.600;38.134;2022-11-20T05:16:17;19.83;;;6.45;;
59016;SDS011;44800;55.600;38.134;2022-11-20T05:18:46;11.55;;;5.45;;
59016;SDS011;44800;55.600;38.134;2022-11-20T05:21:15;12.73;;;5.20;;
59016;SDS011;44800;55.600;38.134;2022-11-20T05:23:44;15.73;;;5.95;;
59016;SDS011;44800;55.600;38.134;2022-11-20T05:26:15;20.98;;;7.00;;
59016;SDS011;44800;55.600;38.134;2022-11-20T05:28:45;19.63;;;6.57;;
59016;SDS011;44800;55.600;38.134;2022-11-20T05:31:14;18.52;;;6.70;;
59016;SDS011;44800;55.600;38.134;2022-11-20T05:33:51;12.88;;;5.75;;
59016;SDS011;44800;55.600;38.134;2022-11-20T05:36:20;18.13;;;6.00;;
59016;SDS011;44800;55.600;38.134;2022-11-20T05:38:49;17.52;;;7.75;;
59016;SDS011;44800;55.600;38.134;2022-11-20T05:41:23;19.33;;;7.78;;
59016;SDS011;44800;55.600;38.134;2022-11-20T05:43:52;19.27;;;6.95;;
59016;SDS011;44800;55.600;38.134;2022-11-20T05:46:20;18.65;;;7.22;;
59016;SDS011;44800;55.600;38.134;2022-11-20T05:48:54;15.88;;;7.28;;
59016;SDS011;44800;55.600;38.134;2022-11-20T05:51:24;19.88;;;7.78;;
59016;SDS011;44800;55.600;38.134;2022-11-20T05:53:52;16.95;;;6.50;;
59016;SDS011;44800;55.600;38.134;2022-11-20T05:56:21;18.00;;;7.07;;
59016;SDS011;44800;55.600;38.134;2022-11-20T05:58:51;19.30;;;7.15;;
59016;SDS011;44800;55.600;38.134;2022-11-20T06:01:20;24.08;;;7.55;;
59016;SDS011;44800;55.600;38.134;2022-11-20T06:03:50;19.08;;;7.07;;
59016;SDS011;44800;55.600;38.134;2022-11-20T06:06:19;19.15;;;6.25;;
59016;SDS011;44800;55.600;38.134;2022-11-20T06:08:47;20.60;;;7.45;;
59016;SDS011;44800;55.600;38.134;2022-11-20T06:11:16;18.73;;;7.80;;
59016;SDS011;44800;55.600;38.134;2022-11-20T06:13:44;24.27;;;8.20;;
59016;SDS011;44800;55.600;38.134;2022-11-20T06:16:16;18.55;;;7.55;;
59016;SDS011;44800;55.600;38.134;2022-11-20T06:18:45;17.15;;;6.78;;
59016;SDS011;44800;55.600;38.134;2022-11-20T06:21:14;19.58;;;7.55;;
59016;SDS011;44800;55.600;38.134;2022-11-20T06:23:44;18.48;;;7.28;;
59016;SDS011;44800;55.600;38.134;2022-11-20T06:26:13;17.55;;;7.72;;
59016;SDS011;44800;55.600;38.134;2022-11-20T06:28:43;19.13;;;8.13;;
59016;SDS011;44800;55.600;38.134;2022-11-20T06:31:11;19.33;;;7.05;;
59016;SDS011;44800;55.600;38.134;2022-11-20T06:33:42;19.75;;;7.43;;
59016;SDS011;44800;55.600;38.134;2022-11-20T06:36:11;15.68;;;6.78;;
59016;SDS011;44800;55.600;38.134;2022-11-20T06:38:40;18.75;;;8.32;;
59016;SDS011;44800;55.600;38.134;2022-11-20T06:41:10;20.05;;;8.10;;
59016;SDS011;44800;55.600;38.134;2022-11-20T06:43:39;22.17;;;8.43;;
59016;SDS011;44800;55.600;38.134;2022-11-20T06:46:08;25.23;;;8.25;;
59016;SDS011;44800;55.600;38.134;2022-11-20T06:48:38;21.17;;;7.15;;
59016;SDS011;44800;55.600;38.134;2022-11-20T06:51:07;18.65;;;8.40;;
59016;SDS011;44800;55.600;38.134;2022-11-20T06:53:36;18.23;;;6.32;;
59016;SDS011;44800;55.600;38.134;2022-11-20T06:56:05;15.38;;;7.07;;
59016;SDS011;44800;55.600;38.134;2022-11-20T06:58:34;19.70;;;7.57;;
59016;SDS011;44800;55.600;38.134;2022-11-20T07:01:03;18.98;;;6.95;;
59016;SDS011;44800;55.600;38.134;2022-11-20T07:03:33;19.42;;;7.45;;
59016;SDS011;44800;55.600;38.134;2022-11-20T07:06:02;17.63;;;6.90;;
59016;SDS011;44800;55.600;38.134;2022-11-20T07:08:33;17.17;;;5.65;;
59016;SDS011;44800;55.600;38.134;2022-11-20T07:11:02;20.35;;;8.23;;
59016;SDS011;44800;55.600;38.134;2022-11-20T07:13:32;14.50;;;7.05;;
59016;SDS011;44800;55.600;38.134;2022-11-20T07:16:00;20.33;;;5.95;;
59016;SDS011;44800;55.600;38.134;2022-11-20T07:18:30;18.40;;;6.53;;
59016;SDS011;44800;55.600;38.134;2022-11-20T07:20:59;18.73;;;6.80;;
59016;SDS011;44800;55.600;38.134;2022-11-20T07:23:28;18.52;;;8.45;;
59016;SDS011;44800;55.600;38.134;2022-11-20T07:25:58;22.95;;;9.35;;
59016;SDS011;44800;55.600;38.134;2022-11-20T07:28:30;19.38;;;8.35;;
59016;SDS011;44800;55.600;38.134;2022-11-20T07:30:58;18.38;;;8.00;;
59016;SDS011;44800;55.600;38.134;2022-11-20T07:33:27;20.92;;;8.40;;
59016;SDS011;44800;55.600;38.134;2022-11-20T07:35:55;23.98;;;7.78;;
59016;SDS011;44800;55.600;38.134;2022-11-20T07:38:26;15.85;;;7.18;;
59016;SDS011;44800;55.600;38.134;2022-11-20T07:40:54;25.05;;;9.48;;
59016;SDS011;44800;55.600;38.134;2022-11-20T07:43:25;17.90;;;7.57;;
59016;SDS011;44800;55.600;38.134;2022-11-20T07:45:54;23.98;;;9.57;;
59016;SDS011;44800;55.600;38.134;2022-11-20T07:48:22;23.50;;;9.07;;
59016;SDS011;44800;55.600;38.134;2022-11-20T07:50:52;21.98;;;7.85;;
59016;SDS011;44800;55.600;38.134;2022-11-20T07:53:21;16.77;;;7.95;;
59016;SDS011;44800;55.600;38.134;2022-11-20T07:55:49;21.50;;;8.50;;
59016;SDS011;44800;55.600;38.134;2022-11-20T07:58:19;22.02;;;8.30;;
59016;SDS011;44800;55.600;38.134;2022-11-20T08:00:49;29.10;;;8.85;;
59016;SDS011;44800;55.600;38.134;2022-11-20T08:03:17;21.13;;;8.68;;
59016;SDS011;44800;55.600;38.134;2022-11-20T08:05:50;21.75;;;9.30;;
59016;SDS011;44800;55.600;38.134;2022-11-20T08:08:19;24.05;;;7.72;;
59016;SDS011;44800;55.600;38.134;2022-11-20T08:10:47;19.50;;;8.93;;
59016;SDS011;44800;55.600;38.134;2022-11-20T08:13:15;32.47;;;10.25;;
59016;SDS011;44800;55.600;38.134;2022-11-20T08:16:03;23.45;;;9.15;;
59016;SDS011;44800;55.600;38.134;2022-11-20T08:18:32;25.83;;;9.45;;
59016;SDS011;44800;55.600;38.134;2022-11-20T08:21:01;30.00;;;8.15;;
59016;SDS011;44800;55.600;38.134;2022-11-20T08:23:30;20.60;;;7.82;;
59016;SDS011;44800;55.600;38.134;2022-11-20T08:25:59;23.33;;;9.82;;
59016;SDS011;44800;55.600;38.134;2022-11-20T08:28:27;23.67;;;8.93;;
59016;SDS011;44800;55.600;38.134;2022-11-20T08:30:57;24.08;;;8.95;;
59016;SDS011;44800;55.600;38.134;2022-11-20T08:33:28;23.65;;;8.70;;
59016;SDS011;44800;55.600;38.134;2022-11-20T08:35:58;17.95;;;7.05;;
59016;SDS011;44800;55.600;38.134;2022-11-20T08:38:27;21.35;;;8.43;;
59016;SDS011;44800;55.600;38.134;2022-11-20T08:40:56;19.83;;;8.10;;
59016;SDS011;44800;55.600;38.134;2022-11-20T08:43:42;26.85;;;9.10;;
59016;SDS011;44800;55.600;38.134;2022-11-20T08:46:10;22.35;;;9.60;;
59016;SDS011;44800;55.600;38.134;2022-11-20T08:48:40;21.98;;;9.35;;
59016;SDS011;44800;55.600;38.134;2022-11-20T08:51:08;20.55;;;8.75;;
59016;SDS011;44800;55.600;38.134;2022-11-20T08:53:37;26.27;;;9.57;;
59016;SDS011;44800;55.600;38.134;2022-11-20T08:56:06;26.52;;;9.43;;
59016;SDS011;44800;55.600;38.134;2022-11-20T08:58:36;26.88;;;8.75;;
59016;SDS011;44800;55.600;38.134;2022-11-20T09:01:24;21.33;;;9.13;;
59016;SDS011;44800;55.600;38.134;2022-11-20T09:03:56;21.67;;;8.88;;
59016;SDS011;44800;55.600;38.134;2022-11-20T09:06:26;20.92;;;9.65;;
59016;SDS011;44800;55.600;38.134;2022-11-20T09:08:54;21.10;;;9.05;;
59016;SDS011;44800;55.600;38.134;2022-11-20T09:11:30;16.65;;;9.32;;
59016;SDS011;44800;55.600;38.134;2022-11-20T09:13:58;27.30;;;8.10;;
59016;SDS011;44800;55.600;38.134;2022-11-20T09:16:29;29.63;;;9.32;;
59016;SDS011;44800;55.600;38.134;2022-11-20T09:18:58;27.02;;;9.75;;
59016;SDS011;44800;55.600;38.134;2022-11-20T09:21:47;28.58;;;9.35;;
59016;SDS011;44800;55.600;38.134;2022-11-20T09:24:15;34.03;;;11.50;;
59016;SDS011;44800;55.600;38.134;2022-11-20T09:26:44;25.83;;;9.25;;
59016;SDS011;44800;55.600;38.134;2022-11-20T09:29:12;23.38;;;9.55;;
59016;SDS011;44800;55.600;38.134;2022-11-20T09:31:40;23.48;;;10.77;;
59016;SDS011;44800;55.600;38.134;2022-11-20T09:34:10;18.70;;;7.38;;
59016;SDS011;44800;55.600;38.134;2022-11-20T09:36:38;24.60;;;9.60;;
59016;SDS011;44800;55.600;38.134;2022-11-20T09:39:06;17.77;;;8.93;;
59016;SDS011;44800;55.600;38.134;2022-11-20T09:44:31;25.23;;;9.25;;
59016;SDS011;44800;55.600;38.134;2022-11-20T09:47:08;29.80;;;9.80;;
59016;SDS011;44800;55.600;38.134;2022-11-20T09:49:47;31.52;;;11.35;;
59016;SDS011;44800;55.600;38.134;2022-11-20T09:52:27;27.60;;;9.70;;
59016;SDS011;44800;55.600;38.134;2022-11-20T09:55:01;35.25;;;10.60;;
59016;SDS011;44800;55.600;38.134;2022-11-20T09:57:32;26.13;;;10.65;;
59016;SDS011;44800;55.600;38.134;2022-11-20T10:00:03;25.90;;;9.20;;
59016;SDS011;44800;55.600;38.134;2022-11-20T10:02:35;26.95;;;9.70;;
59016;SDS011;44800;55.600;38.134;2022-11-20T10:05:10;30.50;;;10.05;;
59016;SDS011;44800;55.600;38.134;2022-11-20T10:10:13;22.00;;;8.73;;
59016;SDS011;44800;55.600;38.134;2022-11-20T10:12:48;25.17;;;9.52;;
59016;SDS011;44800;55.600;38.134;2022-11-20T10:15:29;28.92;;;9.45;;
59016;SDS011;44800;55.600;38.134;2022-11-20T10:20:51;22.65;;;9.57;;
59016;SDS011;44800;55.600;38.134;2022-11-20T10:26:21;29.23;;;11.48;;
59016;SDS011;44800;55.600;38.134;2022-11-20T10:28:54;31.93;;;10.70;;
59016;SDS011;44800;55.600;38.134;2022-11-20T10:31:34;29.13;;;10.32;;
59016;SDS011;44800;55.600;38.134;2022-11-20T10:34:05;30.02;;;10.32;;
59016;SDS011;44800;55.600;38.134;2022-11-20T10:36:40;28.95;;;10.45;;
59016;SDS011;44800;55.600;38.134;2022-11-20T10:39:14;34.50;;;13.43;;
59016;SDS011;44800;55.600;38.134;2022-11-20T10:41:46;33.00;;;10.07;;
59016;SDS011;44800;55.600;38.134;2022-11-20T10:44:19;23.73;;;9.15;;
59016;SDS011;44800;55.600;38.134;2022-11-20T10:47:11;25.42;;;8.95;;
59016;SDS011;44800;55.600;38.134;2022-11-20T10:49:41;26.10;;;10.05;;
59016;SDS011;44800;55.600;38.134;2022-11-20T10:52:16;37.65;;;12.38;;
59016;SDS011;44800;55.600;38.134;2022-11-20T10:54:56;31.58;;;12.55;;
59016;SDS011;44800;55.600;38.134;2022-11-20T10:57:31;38.00;;;14.05;;
59016;SDS011;44800;55.600;38.134;2022-11-20T11:00:09;34.00;;;12.20;;
59016;SDS011;44800;55.600;38.134;2022-11-20T11:02:39;39.28;;;14.48;;
59016;SDS011;44800;55.600;38.134;2022-11-20T11:05:12;29.65;;;12.75;;
59016;SDS011;44800;55.600;38.134;2022-11-20T11:07:47;38.08;;;14.65;;
59016;SDS011;44800;55.600;38.134;2022-11-20T11:10:18;31.10;;;11.88;;
59016;SDS011;44800;55.600;38.134;2022-11-20T11:12:49;30.73;;;11.80;;
59016;SDS011;44800;55.600;38.134;2022-11-20T11:15:24;36.00;;;11.82;;
59016;SDS011;44800;55.600;38.134;2022-11-20T11:17:54;33.15;;;13.38;;
59016;SDS011;44800;55.600;38.134;2022-11-20T11:20:23;45.13;;;14.15;;
59016;SDS011;44800;55.600;38.134;2022-11-20T11:22:55;29.15;;;12.68;;
59016;SDS011;44800;55.600;38.134;2022-11-20T11:25:26;38.70;;;14.75;;
59016;SDS011;44800;55.600;38.134;2022-11-20T11:27:57;34.42;;;12.88;;
59016;SDS011;44800;55.600;38.134;2022-11-20T11:30:27;41.35;;;13.95;;
59016;SDS011;44800;55.600;38.134;2022-11-20T11:33:10;40.80;;;15.32;;
59016;SDS011;44800;55.600;38.134;2022-11-20T11:35:43;43.97;;;16.65;;
59016;SDS011;44800;55.600;38.134;2022-11-20T11:38:19;44.25;;;15.45;;
59016;SDS011;44800;55.600;38.134;2022-11-20T11:40:52;39.58;;;15.52;;
59016;SDS011;44800;55.600;38.134;2022-11-20T11:43:21;39.97;;;16.70;;
59016;SDS011;44800;55.600;38.134;2022-11-20T11:46:07;43.95;;;16.27;;
59016;SDS011;44800;55.600;38.134;2022-11-20T11:48:54;52.10;;;18.67;;
59016;SDS011;44800;55.600;38.134;2022-11-20T11:51:24;46.72;;;17.45;;
59016;SDS011;44800;55.600;38.134;2022-11-20T11:53:57;47.03;;;15.35;;
59016;SDS011;44800;55.600;38.134;2022-11-20T11:56:26;29.33;;;13.93;;
59016;SDS011;44800;55.600;38.134;2022-11-20T11:58:56;44.53;;;14.63;;
59016;SDS011;44800;55.600;38.134;2022-11-20T12:01:28;39.35;;;14.80;;
59016;SDS011;44800;55.600;38.134;2022-11-20T12:04:00;41.72;;;14.60;;
59016;SDS011;44800;55.600;38.134;2022-11-20T12:06:32;42.55;;;12.85;;
59016;SDS011;44800;55.600;38.134;2022-11-20T12:09:03;46.10;;;14.80;;
59016;SDS011;44800;55.600;38.134;2022-11-20T12:11:34;51.05;;;16.70;;
59016;SDS011;44800;55.600;38.134;2022-11-20T12:14:09;50.50;;;15.23;;
59016;SDS011;44800;55.600;38.134;2022-11-20T12:16:40;38.63;;;14.40;;
59016;SDS011;44800;55.600;38.134;2022-11-20T12:19:09;44.80;;;14.73;;
59016;SDS011;44800;55.600;38.134;2022-11-20T12:21:43;34.10;;;13.55;;
59016;SDS011;44800;55.600;38.134;2022-11-20T12:24:29;35.25;;;13.68;;
59016;SDS011;44800;55.600;38.134;2022-11-20T12:27:25;36.47;;;13.55;;
59016;SDS011;44800;55.600;38.134;2022-11-20T12:30:08;42.58;;;13.23;;
59016;SDS011;44800;55.600;38.134;2022-11-20T12:35:37;38.03;;;13.43;;
59016;SDS011;44800;55.600;38.134;2022-11-20T12:38:23;45.28;;;16.55;;
59016;SDS011;44800;55.600;38.134;2022-11-20T12:41:02;41.78;;;14.55;;
59016;SDS011;44800;55.600;38.134;2022-11-20T12:43:36;48.35;;;16.50;;
59016;SDS011;44800;55.600;38.134;2022-11-20T12:46:26;51.63;;;15.45;;
59016;SDS011;44800;55.600;38.134;2022-11-20T12:49:05;50.45;;;16.08;;
59016;SDS011;44800;55.600;38.134;2022-11-20T12:52:02;41.95;;;13.82;;
59016;SDS011;44800;55.600;38.134;2022-11-20T12:54:47;42.35;;;15.88;;
59016;SDS011;44800;55.600;38.134;2022-11-20T12:57:37;48.58;;;16.13;;
59016;SDS011;44800;55.600;38.134;2022-11-20T13:00:11;61.53;;;17.67;;
59016;SDS011;44800;55.600;38.134;2022-11-20T13:02:47;57.30;;;18.67;;
59016;SDS011;44800;55.600;38.134;2022-11-20T13:05:41;57.17;;;17.38;;
59016;SDS011;44800;55.600;38.134;2022-11-20T13:08:16;56.30;;;17.17;;
59016;SDS011;44800;55.600;38.134;2022-11-20T13:10:49;54.10;;;18.05;;
59016;SDS011;44800;55.600;38.134;2022-11-20T13:13:22;51.28;;;16.45;;
59016;SDS011;44800;55.600;38.134;2022-11-20T13:15:53;47.00;;;15.32;;
59016;SDS011;44800;55.600;38.134;2022-11-20T13:18:24;52.55;;;16.50;;
59016;SDS011;44800;55.600;38.134;2022-11-20T13:20:53;48.40;;;15.27;;
59016;SDS011;44800;55.600;38.134;2022-11-20T13:23:24;65.43;;;18.17;;
59016;SDS011;44800;55.600;38.134;2022-11-20T13:26:04;51.10;;;17.55;;
59016;SDS011;44800;55.600;38.134;2022-11-20T13:28:34;61.95;;;17.90;;
59016;SDS011;44800;55.600;38.134;2022-11-20T13:31:03;50.22;;;17.10;;
59016;SDS011;44800;55.600;38.134;2022-11-20T13:33:33;62.60;;;17.42;;
59016;SDS011;44800;55.600;38.134;2022-11-20T13:36:04;60.22;;;18.20;;
59016;SDS011;44800;55.600;38.134;2022-11-20T13:38:40;70.88;;;18.27;;
59016;SDS011;44800;55.600;38.134;2022-11-20T13:41:11;42.60;;;13.88;;
59016;SDS011;44800;55.600;38.134;2022-11-20T13:44:04;57.60;;;15.68;;
59016;SDS011;44800;55.600;38.134;2022-11-20T13:46:35;58.15;;;16.15;;
59016;SDS011;44800;55.600;38.134;2022-11-20T13:49:08;56.17;;;17.02;;
59016;SDS011;44800;55.600;38.134;2022-11-20T13:51:40;48.78;;;15.43;;
59016;SDS011;44800;55.600;38.134;2022-11-20T13:54:22;65.53;;;18.80;;
59016;SDS011;44800;55.600;38.134;2022-11-20T13:57:04;58.95;;;17.25;;
59016;SDS011;44800;55.600;38.134;2022-11-20T13:59:52;50.38;;;16.90;;
59016;SDS011;44800;55.600;38.134;2022-11-20T14:02:25;59.78;;;15.77;;
59016;SDS011;44800;55.600;38.134;2022-11-20T14:04:56;60.80;;;15.55;;
59016;SDS011;44800;55.600;38.134;2022-11-20T14:07:31;55.95;;;15.43;;
59016;SDS011;44800;55.600;38.134;2022-11-20T14:10:02;56.55;;;19.15;;
59016;SDS011;44800;55.600;38.134;2022-11-20T14:12:33;58.45;;;17.23;;
59016;SDS011;44800;55.600;38.134;2022-11-20T14:15:05;76.32;;;20.00;;
59016;SDS011;44800;55.600;38.134;2022-11-20T14:17:34;55.10;;;15.00;;
59016;SDS011;44800;55.600;38.134;2022-11-20T14:20:04;58.15;;;18.35;;
59016;SDS011;44800;55.600;38.134;2022-11-20T14:22:33;63.53;;;19.48;;
59016;SDS011;44800;55.600;38.134;2022-11-20T14:25:03;73.47;;;18.52;;
59016;SDS011;44800;55.600;38.134;2022-11-20T14:27:34;62.97;;;18.55;;
59016;SDS011;44800;55.600;38.134;2022-11-20T14:30:06;61.00;;;17.10;;
59016;SDS011;44800;55.600;38.134;2022-11-20T14:32:41;63.95;;;19.40;;
59016;SDS011;44800;55.600;38.134;2022-11-20T14:35:13;66.82;;;20.08;;
59016;SDS011;44800;55.600;38.134;2022-11-20T14:37:45;58.13;;;18.50;;
59016;SDS011;44800;55.600;38.134;2022-11-20T14:40:27;65.38;;;23.02;;
59016;SDS011;44800;55.600;38.134;2022-11-20T14:42:57;58.38;;;17.20;;
59016;SDS011;44800;55.600;38.134;2022-11-20T14:45:27;68.18;;;19.30;;
59016;SDS011;44800;55.600;38.134;2022-11-20T14:47:56;54.67;;;17.02;;
59016;SDS011;44800;55.600;38.134;2022-11-20T14:50:26;67.53;;;18.30;;
59016;SDS011;44800;55.600;38.134;2022-11-20T14:52:56;68.90;;;19.05;;
59016;SDS011;44800;55.600;38.134;2022-11-20T14:55:26;56.00;;;19.90;;
59016;SDS011;44800;55.600;38.134;2022-11-20T14:57:55;71.65;;;17.70;;
59016;SDS011;44800;55.600;38.134;2022-11-20T15:00:27;63.47;;;18.02;;